sensor_id;sensor_type;location;lat;lon;timestamp;temperature;humidity
33011;DHT22;19370;48.562;9.196;2022-09-01T00:01:20;15.60;99.90
33011;DHT22;19370;48.562;9.196;2022-09-01T00:04:11;15.60;99.90
33011;DHT22;19370;48.562;9.196;2022-09-01T00:06:57;15.60;99.90
33011;DHT22;19370;48.562;9.196;2022-09-01T00:09:44;15.50;99.90
33011;DHT22;19370;48.562;9.196;2022-09-01T00:12:30;15.50;99.90
33011;DHT22;19370;48.562;9.196;2022-09-01T00:15:16;15.60;99.90
33011;DHT22;19370;48.562;9.196;2022-09-01T00:18:03;15.60;99.90
33011;DHT22;19370;48.562;9.196;2022-09-01T00:20:49;15.50;99.90
33011;DHT22;19370;48.562;9.196;2022-09-01T00:23:36;15.50;99.90
33011;DHT22;19370;48.562;9.196;2022-09-01T00:26:22;15.50;99.90
33011;DHT22;19370;48.562;9.196;2022-09-01T00:29:09;15.60;99.90
33011;DHT22;19370;48.562;9.196;2022-09-01T00:31:55;15.60;99.90
33011;DHT22;19370;48.562;9.196;2022-09-01T00:34:41;15.60;99.90
33011;DHT22;19370;48.562;9.196;2022-09-01T00:37:27;15.70;99.90
33011;DHT22;19370;48.562;9.196;2022-09-01T00:40:15;15.60;99.90
33011;DHT22;19370;48.562;9.196;2022-09-01T00:43:11;15.60;99.90
33011;DHT22;19370;48.562;9.196;2022-09-01T00:45:57;15.60;99.90
33011;DHT22;19370;48.562;9.196;2022-09-01T00:48:43;15.60;99.90
33011;DHT22;19370;48.562;9.196;2022-09-01T00:51:30;15.50;99.90
33011;DHT22;19370;48.562;9.196;2022-09-01T00:54:26;15.40;99.90
33011;DHT22;19370;48.562;9.196;2022-09-01T00:57:14;15.40;99.90
33011;DHT22;19370;48.562;9.196;2022-09-01T01:02:53;15.40;99.90
33011;DHT22;19370;48.562;9.196;2022-09-01T01:05:47;15.30;99.90
33011;DHT22;19370;48.562;9.196;2022-09-01T01:08:41;15.30;99.90
33011;DHT22;19370;48.562;9.196;2022-09-01T01:11:35;15.20;99.90
33011;DHT22;19370;48.562;9.196;2022-09-01T01:14:21;15.20;99.90
33011;DHT22;19370;48.562;9.196;2022-09-01T01:17:08;15.20;99.90
33011;DHT22;19370;48.562;9.196;2022-09-01T01:19:55;15.20;99.90
33011;DHT22;19370;48.562;9.196;2022-09-01T01:23:15;15.20;99.90
33011;DHT22;19370;48.562;9.196;2022-09-01T01:26:08;15.20;99.90
33011;DHT22;19370;48.562;9.196;2022-09-01T01:28:55;15.10;99.90
33011;DHT22;19370;48.562;9.196;2022-09-01T01:31:41;15.10;99.90
33011;DHT22;19370;48.562;9.196;2022-09-01T01:34:27;15.10;99.90
33011;DHT22;19370;48.562;9.196;2022-09-01T01:37:13;15.00;99.90
33011;DHT22;19370;48.562;9.196;2022-09-01T01:39:59;15.00;99.90
33011;DHT22;19370;48.562;9.196;2022-09-01T01:42:48;14.90;99.90
33011;DHT22;19370;48.562;9.196;2022-09-01T01:45:34;14.90;99.90
33011;DHT22;19370;48.562;9.196;2022-09-01T01:48:21;14.90;99.90
33011;DHT22;19370;48.562;9.196;2022-09-01T01:51:09;14.90;99.90
33011;DHT22;19370;48.562;9.196;2022-09-01T01:53:57;14.90;99.90
33011;DHT22;19370;48.562;9.196;2022-09-01T01:56:44;14.90;99.90
33011;DHT22;19370;48.562;9.196;2022-09-01T01:59:30;14.90;99.90
33011;DHT22;19370;48.562;9.196;2022-09-01T02:02:18;14.90;99.90
33011;DHT22;19370;48.562;9.196;2022-09-01T02:05:04;14.90;99.90
33011;DHT22;19370;48.562;9.196;2022-09-01T02:07:53;14.90;99.90
33011;DHT22;19370;48.562;9.196;2022-09-01T02:10:47;15.00;99.90
33011;DHT22;19370;48.562;9.196;2022-09-01T02:13:33;15.00;99.90
33011;DHT22;19370;48.562;9.196;2022-09-01T02:16:19;15.00;99.90
33011;DHT22;19370;48.562;9.196;2022-09-01T02:19:07;15.00;99.90
33011;DHT22;19370;48.562;9.196;2022-09-01T02:21:54;14.90;99.90
33011;DHT22;19370;48.562;9.196;2022-09-01T02:24:40;15.00;99.90
33011;DHT22;19370;48.562;9.196;2022-09-01T02:27:32;15.00;99.90
33011;DHT22;19370;48.562;9.196;2022-09-01T02:30:21;15.00;99.90
33011;DHT22;19370;48.562;9.196;2022-09-01T02:33:13;15.00;99.90
33011;DHT22;19370;48.562;9.196;2022-09-01T02:36:08;15.00;99.90
33011;DHT22;19370;48.562;9.196;2022-09-01T02:38:54;15.00;99.90
33011;DHT22;19370;48.562;9.196;2022-09-01T02:41:41;15.00;99.90
33011;DHT22;19370;48.562;9.196;2022-09-01T02:44:28;15.00;99.90
33011;DHT22;19370;48.562;9.196;2022-09-01T02:47:15;14.90;99.90
33011;DHT22;19370;48.562;9.196;2022-09-01T02:50:01;14.90;99.90
33011;DHT22;19370;48.562;9.196;2022-09-01T02:52:48;15.00;99.90
33011;DHT22;19370;48.562;9.196;2022-09-01T02:55:36;15.00;99.90
33011;DHT22;19370;48.562;9.196;2022-09-01T02:58:22;15.00;99.90
33011;DHT22;19370;48.562;9.196;2022-09-01T03:01:22;15.10;99.90
33011;DHT22;19370;48.562;9.196;2022-09-01T03:04:10;15.10;99.90
33011;DHT22;19370;48.562;9.196;2022-09-01T03:06:56;15.20;99.90
33011;DHT22;19370;48.562;9.196;2022-09-01T03:09:43;15.20;99.90
33011;DHT22;19370;48.562;9.196;2022-09-01T03:12:29;15.20;99.90
33011;DHT22;19370;48.562;9.196;2022-09-01T03:15:15;15.20;99.90
33011;DHT22;19370;48.562;9.196;2022-09-01T03:18:02;15.00;99.90
33011;DHT22;19370;48.562;9.196;2022-09-01T03:20:48;14.90;99.90
33011;DHT22;19370;48.562;9.196;2022-09-01T03:23:35;14.80;99.90
33011;DHT22;19370;48.562;9.196;2022-09-01T03:26:23;14.80;99.90
33011;DHT22;19370;48.562;9.196;2022-09-01T03:29:09;14.80;99.90
33011;DHT22;19370;48.562;9.196;2022-09-01T03:31:55;14.80;99.90
33011;DHT22;19370;48.562;9.196;2022-09-01T03:34:41;14.80;99.90
33011;DHT22;19370;48.562;9.196;2022-09-01T03:37:27;14.70;99.90
33011;DHT22;19370;48.562;9.196;2022-09-01T03:40:13;14.70;99.90
33011;DHT22;19370;48.562;9.196;2022-09-01T03:43:02;14.70;99.90
33011;DHT22;19370;48.562;9.196;2022-09-01T03:45:49;14.70;99.90
33011;DHT22;19370;48.562;9.196;2022-09-01T03:48:35;14.60;99.90
33011;DHT22;19370;48.562;9.196;2022-09-01T03:51:22;14.70;99.90
33011;DHT22;19370;48.562;9.196;2022-09-01T03:54:08;14.80;99.90
33011;DHT22;19370;48.562;9.196;2022-09-01T03:56:55;14.80;99.90
33011;DHT22;19370;48.562;9.196;2022-09-01T03:59:44;14.80;99.90
33011;DHT22;19370;48.562;9.196;2022-09-01T04:02:30;14.90;99.90
33011;DHT22;19370;48.562;9.196;2022-09-01T04:05:19;14.90;99.90
33011;DHT22;19370;48.562;9.196;2022-09-01T04:08:07;15.00;99.90
33011;DHT22;19370;48.562;9.196;2022-09-01T04:10:58;15.00;99.90
33011;DHT22;19370;48.562;9.196;2022-09-01T04:13:45;15.00;99.90
33011;DHT22;19370;48.562;9.196;2022-09-01T04:16:33;15.10;99.90
33011;DHT22;19370;48.562;9.196;2022-09-01T04:19:37;15.10;99.90
33011;DHT22;19370;48.562;9.196;2022-09-01T04:22:24;15.20;99.90
33011;DHT22;19370;48.562;9.196;2022-09-01T04:25:13;15.30;99.90
33011;DHT22;19370;48.562;9.196;2022-09-01T04:28:00;15.40;99.90
33011;DHT22;19370;48.562;9.196;2022-09-01T04:30:57;15.50;99.90
33011;DHT22;19370;48.562;9.196;2022-09-01T04:33:46;15.60;99.90
33011;DHT22;19370;48.562;9.196;2022-09-01T04:36:32;15.60;99.90
33011;DHT22;19370;48.562;9.196;2022-09-01T04:39:22;15.60;99.90
33011;DHT22;19370;48.562;9.196;2022-09-01T04:42:08;15.50;99.90
33011;DHT22;19370;48.562;9.196;2022-09-01T04:44:55;15.40;99.90
33011;DHT22;19370;48.562;9.196;2022-09-01T04:47:42;15.30;99.90
33011;DHT22;19370;48.562;9.196;2022-09-01T04:50:30;15.20;99.90
33011;DHT22;19370;48.562;9.196;2022-09-01T04:53:18;15.10;99.90
33011;DHT22;19370;48.562;9.196;2022-09-01T04:56:07;15.10;99.90
33011;DHT22;19370;48.562;9.196;2022-09-01T04:58:57;15.00;99.90
33011;DHT22;19370;48.562;9.196;2022-09-01T05:01:44;15.00;99.90
33011;DHT22;19370;48.562;9.196;2022-09-01T05:04:32;15.00;99.90
33011;DHT22;19370;48.562;9.196;2022-09-01T05:07:18;15.00;99.90
33011;DHT22;19370;48.562;9.196;2022-09-01T05:10:05;14.90;99.90
33011;DHT22;19370;48.562;9.196;2022-09-01T05:12:51;14.90;99.90
33011;DHT22;19370;48.562;9.196;2022-09-01T05:15:41;14.90;99.90
33011;DHT22;19370;48.562;9.196;2022-09-01T05:18:31;14.90;99.90
33011;DHT22;19370;48.562;9.196;2022-09-01T05:21:19;14.70;99.90
33011;DHT22;19370;48.562;9.196;2022-09-01T05:24:06;14.60;99.90
33011;DHT22;19370;48.562;9.196;2022-09-01T05:26:53;14.50;99.90
33011;DHT22;19370;48.562;9.196;2022-09-01T05:29:39;14.40;99.90
33011;DHT22;19370;48.562;9.196;2022-09-01T05:32:26;14.40;99.90
33011;DHT22;19370;48.562;9.196;2022-09-01T05:35:12;14.40;99.90
33011;DHT22;19370;48.562;9.196;2022-09-01T05:37:58;14.50;99.90
33011;DHT22;19370;48.562;9.196;2022-09-01T05:40:44;14.50;99.90
33011;DHT22;19370;48.562;9.196;2022-09-01T05:43:44;14.50;99.90
33011;DHT22;19370;48.562;9.196;2022-09-01T05:46:35;14.70;99.90
33011;DHT22;19370;48.562;9.196;2022-09-01T05:49:22;14.80;99.90
33011;DHT22;19370;48.562;9.196;2022-09-01T05:52:09;14.80;99.90
33011;DHT22;19370;48.562;9.196;2022-09-01T05:54:55;14.90;99.90
33011;DHT22;19370;48.562;9.196;2022-09-01T05:57:42;14.90;99.90
33011;DHT22;19370;48.562;9.196;2022-09-01T06:00:32;14.90;99.90
33011;DHT22;19370;48.562;9.196;2022-09-01T06:03:20;15.00;99.90
33011;DHT22;19370;48.562;9.196;2022-09-01T06:06:06;15.10;99.90
33011;DHT22;19370;48.562;9.196;2022-09-01T06:08:56;15.30;99.90
33011;DHT22;19370;48.562;9.196;2022-09-01T06:11:45;15.40;99.90
33011;DHT22;19370;48.562;9.196;2022-09-01T06:14:31;15.40;99.90
33011;DHT22;19370;48.562;9.196;2022-09-01T06:17:19;15.50;99.90
33011;DHT22;19370;48.562;9.196;2022-09-01T06:20:09;15.40;99.90
33011;DHT22;19370;48.562;9.196;2022-09-01T06:22:55;15.40;99.90
33011;DHT22;19370;48.562;9.196;2022-09-01T06:25:42;15.30;99.90
33011;DHT22;19370;48.562;9.196;2022-09-01T06:28:31;15.30;99.90
33011;DHT22;19370;48.562;9.196;2022-09-01T06:31:17;15.30;99.90
33011;DHT22;19370;48.562;9.196;2022-09-01T06:34:08;15.50;99.90
33011;DHT22;19370;48.562;9.196;2022-09-01T06:36:54;15.70;99.90
33011;DHT22;19370;48.562;9.196;2022-09-01T06:39:40;16.00;99.90
33011;DHT22;19370;48.562;9.196;2022-09-01T06:42:26;16.10;99.90
33011;DHT22;19370;48.562;9.196;2022-09-01T06:45:14;16.20;99.90
33011;DHT22;19370;48.562;9.196;2022-09-01T06:48:01;16.40;99.90
33011;DHT22;19370;48.562;9.196;2022-09-01T06:50:47;16.50;99.90
33011;DHT22;19370;48.562;9.196;2022-09-01T06:53:33;16.60;99.90
33011;DHT22;19370;48.562;9.196;2022-09-01T06:56:19;16.70;99.90
33011;DHT22;19370;48.562;9.196;2022-09-01T06:59:05;16.60;99.90
33011;DHT22;19370;48.562;9.196;2022-09-01T07:01:52;16.50;99.90
33011;DHT22;19370;48.562;9.196;2022-09-01T07:04:39;16.40;99.90
33011;DHT22;19370;48.562;9.196;2022-09-01T07:07:27;16.30;99.90
33011;DHT22;19370;48.562;9.196;2022-09-01T07:10:23;16.30;99.90
33011;DHT22;19370;48.562;9.196;2022-09-01T07:13:12;16.40;99.90
33011;DHT22;19370;48.562;9.196;2022-09-01T07:16:06;16.40;99.90
33011;DHT22;19370;48.562;9.196;2022-09-01T07:18:54;16.40;99.90
33011;DHT22;19370;48.562;9.196;2022-09-01T07:21:43;16.50;99.90
33011;DHT22;19370;48.562;9.196;2022-09-01T07:24:29;16.50;99.90
33011;DHT22;19370;48.562;9.196;2022-09-01T07:27:15;16.60;99.90
33011;DHT22;19370;48.562;9.196;2022-09-01T07:30:01;16.70;99.90
33011;DHT22;19370;48.562;9.196;2022-09-01T07:32:48;16.70;99.90
33011;DHT22;19370;48.562;9.196;2022-09-01T07:35:37;16.80;99.90
33011;DHT22;19370;48.562;9.196;2022-09-01T07:38:25;16.90;99.90
33011;DHT22;19370;48.562;9.196;2022-09-01T07:41:13;17.20;99.90
33011;DHT22;19370;48.562;9.196;2022-09-01T07:43:59;17.40;99.90
33011;DHT22;19370;48.562;9.196;2022-09-01T07:46:47;17.60;99.90
33011;DHT22;19370;48.562;9.196;2022-09-01T07:49:35;17.70;99.90
33011;DHT22;19370;48.562;9.196;2022-09-01T07:52:24;17.70;99.90
33011;DHT22;19370;48.562;9.196;2022-09-01T07:55:13;17.90;99.90
33011;DHT22;19370;48.562;9.196;2022-09-01T07:57:59;17.80;99.90
33011;DHT22;19370;48.562;9.196;2022-09-01T08:00:45;17.70;99.90
33011;DHT22;19370;48.562;9.196;2022-09-01T08:03:32;17.90;99.90
33011;DHT22;19370;48.562;9.196;2022-09-01T08:06:20;18.10;99.90
33011;DHT22;19370;48.562;9.196;2022-09-01T08:09:07;18.10;99.90
33011;DHT22;19370;48.562;9.196;2022-09-01T08:11:53;18.10;99.90
33011;DHT22;19370;48.562;9.196;2022-09-01T08:14:39;18.10;99.90
33011;DHT22;19370;48.562;9.196;2022-09-01T08:17:25;18.10;99.90
33011;DHT22;19370;48.562;9.196;2022-09-01T08:20:11;18.40;99.90
33011;DHT22;19370;48.562;9.196;2022-09-01T08:22:57;18.60;99.90
33011;DHT22;19370;48.562;9.196;2022-09-01T08:25:45;18.80;99.90
33011;DHT22;19370;48.562;9.196;2022-09-01T08:28:32;19.00;99.90
33011;DHT22;19370;48.562;9.196;2022-09-01T08:31:19;19.20;99.90
33011;DHT22;19370;48.562;9.196;2022-09-01T08:34:05;19.50;99.90
33011;DHT22;19370;48.562;9.196;2022-09-01T08:36:51;19.40;99.90
33011;DHT22;19370;48.562;9.196;2022-09-01T08:39:37;19.30;99.90
33011;DHT22;19370;48.562;9.196;2022-09-01T08:45:50;19.50;99.90
33011;DHT22;19370;48.562;9.196;2022-09-01T08:48:42;20.10;99.90
33011;DHT22;19370;48.562;9.196;2022-09-01T08:51:39;20.20;99.90
33011;DHT22;19370;48.562;9.196;2022-09-01T08:57:55;20.00;99.90
33011;DHT22;19370;48.562;9.196;2022-09-01T09:00:45;20.20;99.90
33011;DHT22;19370;48.562;9.196;2022-09-01T09:04:12;20.30;99.90
33011;DHT22;19370;48.562;9.196;2022-09-01T09:07:22;20.60;99.90
33011;DHT22;19370;48.562;9.196;2022-09-01T09:10:16;20.70;99.90
33011;DHT22;19370;48.562;9.196;2022-09-01T09:13:15;21.10;99.90
33011;DHT22;19370;48.562;9.196;2022-09-01T09:16:11;21.20;99.90
33011;DHT22;19370;48.562;9.196;2022-09-01T09:22:00;21.70;99.90
33011;DHT22;19370;48.562;9.196;2022-09-01T09:25:12;21.50;99.90
33011;DHT22;19370;48.562;9.196;2022-09-01T09:27:59;21.00;99.90
33011;DHT22;19370;48.562;9.196;2022-09-01T09:30:45;20.50;99.90
33011;DHT22;19370;48.562;9.196;2022-09-01T09:33:35;20.40;99.90
33011;DHT22;19370;48.562;9.196;2022-09-01T09:36:35;20.30;99.90
33011;DHT22;19370;48.562;9.196;2022-09-01T09:39:21;20.60;99.90
33011;DHT22;19370;48.562;9.196;2022-09-01T09:42:12;20.90;99.90
33011;DHT22;19370;48.562;9.196;2022-09-01T09:44:58;20.90;99.90
33011;DHT22;19370;48.562;9.196;2022-09-01T09:47:45;21.10;99.90
33011;DHT22;19370;48.562;9.196;2022-09-01T09:50:42;21.10;99.90
33011;DHT22;19370;48.562;9.196;2022-09-01T09:53:30;21.60;99.90
33011;DHT22;19370;48.562;9.196;2022-09-01T09:56:21;22.00;99.90
33011;DHT22;19370;48.562;9.196;2022-09-01T10:03:00;22.10;99.90
33011;DHT22;19370;48.562;9.196;2022-09-01T10:05:48;21.70;99.90
33011;DHT22;19370;48.562;9.196;2022-09-01T10:08:40;21.50;99.90
33011;DHT22;19370;48.562;9.196;2022-09-01T10:11:23;21.60;99.90
33011;DHT22;19370;48.562;9.196;2022-09-01T10:13:52;21.70;99.90
33011;DHT22;19370;48.562;9.196;2022-09-01T10:16:31;21.60;99.90
33011;DHT22;19370;48.562;9.196;2022-09-01T10:19:00;21.50;99.90
33011;DHT22;19370;48.562;9.196;2022-09-01T10:21:33;21.30;99.90
33011;DHT22;19370;48.562;9.196;2022-09-01T10:24:18;21.10;99.90
33011;DHT22;19370;48.562;9.196;2022-09-01T10:26:49;21.00;99.90
33011;DHT22;19370;48.562;9.196;2022-09-01T10:29:56;20.90;99.90
33011;DHT22;19370;48.562;9.196;2022-09-01T10:32:46;21.10;99.90
33011;DHT22;19370;48.562;9.196;2022-09-01T10:35:17;21.80;99.90
33011;DHT22;19370;48.562;9.196;2022-09-01T10:37:45;22.30;99.90
33011;DHT22;19370;48.562;9.196;2022-09-01T10:42:49;22.50;99.90
33011;DHT22;19370;48.562;9.196;2022-09-01T10:45:28;22.70;99.90
33011;DHT22;19370;48.562;9.196;2022-09-01T10:47:56;22.50;99.90
33011;DHT22;19370;48.562;9.196;2022-09-01T10:50:30;22.40;99.90
33011;DHT22;19370;48.562;9.196;2022-09-01T10:53:03;22.70;99.90
33011;DHT22;19370;48.562;9.196;2022-09-01T10:55:47;22.70;99.90
33011;DHT22;19370;48.562;9.196;2022-09-01T10:58:40;22.80;99.90
33011;DHT22;19370;48.562;9.196;2022-09-01T11:01:09;22.40;99.90
33011;DHT22;19370;48.562;9.196;2022-09-01T11:03:50;22.30;99.90
33011;DHT22;19370;48.562;9.196;2022-09-01T11:14:52;21.70;99.90
33011;DHT22;19370;48.562;9.196;2022-09-01T11:17:23;21.80;99.90
33011;DHT22;19370;48.562;9.196;2022-09-01T11:30:36;21.50;99.90
33011;DHT22;19370;48.562;9.196;2022-09-01T11:33:26;21.40;99.90
33011;DHT22;19370;48.562;9.196;2022-09-01T11:36:05;21.30;99.90
33011;DHT22;19370;48.562;9.196;2022-09-01T11:41:23;21.30;99.90
33011;DHT22;19370;48.562;9.196;2022-09-01T11:43:54;21.40;99.90
33011;DHT22;19370;48.562;9.196;2022-09-01T11:46:28;21.90;99.90
33011;DHT22;19370;48.562;9.196;2022-09-01T11:48:59;22.90;99.90
33011;DHT22;19370;48.562;9.196;2022-09-01T11:51:25;23.40;99.90
33011;DHT22;19370;48.562;9.196;2022-09-01T11:53:51;23.20;99.90
33011;DHT22;19370;48.562;9.196;2022-09-01T11:56:27;22.80;99.90
33011;DHT22;19370;48.562;9.196;2022-09-01T11:58:53;22.40;99.90
33011;DHT22;19370;48.562;9.196;2022-09-01T12:03:48;22.20;99.90
33011;DHT22;19370;48.562;9.196;2022-09-01T12:06:23;22.00;99.90
33011;DHT22;19370;48.562;9.196;2022-09-01T12:09:00;22.00;99.90
33011;DHT22;19370;48.562;9.196;2022-09-01T12:11:34;21.70;99.90
33011;DHT22;19370;48.562;9.196;2022-09-01T12:14:06;21.70;99.90
33011;DHT22;19370;48.562;9.196;2022-09-01T12:16:33;22.00;99.90
33011;DHT22;19370;48.562;9.196;2022-09-01T12:19:03;22.40;99.90
33011;DHT22;19370;48.562;9.196;2022-09-01T12:21:33;22.60;99.90
33011;DHT22;19370;48.562;9.196;2022-09-01T12:24:20;22.60;99.90
33011;DHT22;19370;48.562;9.196;2022-09-01T12:26:49;22.30;99.90
33011;DHT22;19370;48.562;9.196;2022-09-01T12:29:16;22.10;99.90
33011;DHT22;19370;48.562;9.196;2022-09-01T12:31:45;21.90;99.90
33011;DHT22;19370;48.562;9.196;2022-09-01T12:37:22;23.50;99.90
33011;DHT22;19370;48.562;9.196;2022-09-01T12:39:57;25.00;97.00
33011;DHT22;19370;48.562;9.196;2022-09-01T12:42:29;26.20;96.50
33011;DHT22;19370;48.562;9.196;2022-09-01T12:45:00;26.70;95.60
33011;DHT22;19370;48.562;9.196;2022-09-01T12:50:00;27.00;93.40
33011;DHT22;19370;48.562;9.196;2022-09-01T12:52:27;26.40;93.10
33011;DHT22;19370;48.562;9.196;2022-09-01T12:57:38;24.30;94.80
33011;DHT22;19370;48.562;9.196;2022-09-01T13:00:22;23.70;95.10
33011;DHT22;19370;48.562;9.196;2022-09-01T13:05:35;23.00;97.00
33011;DHT22;19370;48.562;9.196;2022-09-01T13:08:06;22.80;97.70
33011;DHT22;19370;48.562;9.196;2022-09-01T13:10:36;22.80;97.70
33011;DHT22;19370;48.562;9.196;2022-09-01T13:13:06;22.80;97.90
33011;DHT22;19370;48.562;9.196;2022-09-01T13:15:33;22.70;98.20
33011;DHT22;19370;48.562;9.196;2022-09-01T13:17:59;22.70;98.70
33011;DHT22;19370;48.562;9.196;2022-09-01T13:20:25;22.70;98.80
33011;DHT22;19370;48.562;9.196;2022-09-01T13:22:51;23.40;99.00
33011;DHT22;19370;48.562;9.196;2022-09-01T13:25:21;24.50;97.10
33011;DHT22;19370;48.562;9.196;2022-09-01T13:27:48;25.10;95.90
33011;DHT22;19370;48.562;9.196;2022-09-01T13:30:16;25.70;93.90
33011;DHT22;19370;48.562;9.196;2022-09-01T13:32:43;26.10;94.20
33011;DHT22;19370;48.562;9.196;2022-09-01T13:35:12;26.70;92.90
33011;DHT22;19370;48.562;9.196;2022-09-01T13:37:38;27.30;91.90
33011;DHT22;19370;48.562;9.196;2022-09-01T13:40:04;27.40;90.90
33011;DHT22;19370;48.562;9.196;2022-09-01T13:42:47;27.50;90.80
33011;DHT22;19370;48.562;9.196;2022-09-01T13:45:15;27.90;89.50
33011;DHT22;19370;48.562;9.196;2022-09-01T13:47:45;27.60;87.90
33011;DHT22;19370;48.562;9.196;2022-09-01T13:50:13;26.80;88.10
33011;DHT22;19370;48.562;9.196;2022-09-01T13:52:46;26.10;89.60
33011;DHT22;19370;48.562;9.196;2022-09-01T13:55:16;26.10;90.90
33011;DHT22;19370;48.562;9.196;2022-09-01T13:57:42;26.70;90.50
33011;DHT22;19370;48.562;9.196;2022-09-01T14:00:12;27.20;90.40
33011;DHT22;19370;48.562;9.196;2022-09-01T14:02:41;27.70;87.90
33011;DHT22;19370;48.562;9.196;2022-09-01T14:05:11;27.50;86.70
33011;DHT22;19370;48.562;9.196;2022-09-01T14:07:37;27.00;87.70
33011;DHT22;19370;48.562;9.196;2022-09-01T14:10:03;26.40;88.10
33011;DHT22;19370;48.562;9.196;2022-09-01T14:12:29;25.70;90.40
33011;DHT22;19370;48.562;9.196;2022-09-01T14:14:56;25.30;92.10
33011;DHT22;19370;48.562;9.196;2022-09-01T14:17:22;25.40;91.40
33011;DHT22;19370;48.562;9.196;2022-09-01T14:19:51;25.10;91.30
33011;DHT22;19370;48.562;9.196;2022-09-01T14:22:17;25.80;91.30
33011;DHT22;19370;48.562;9.196;2022-09-01T14:24:43;26.40;90.60
33011;DHT22;19370;48.562;9.196;2022-09-01T14:27:10;27.00;89.30
33011;DHT22;19370;48.562;9.196;2022-09-01T14:29:38;27.70;88.20
33011;DHT22;19370;48.562;9.196;2022-09-01T14:32:05;28.10;86.60
33011;DHT22;19370;48.562;9.196;2022-09-01T14:34:33;28.60;84.30
33011;DHT22;19370;48.562;9.196;2022-09-01T14:36:59;28.90;83.20
33011;DHT22;19370;48.562;9.196;2022-09-01T14:39:25;28.90;80.70
33011;DHT22;19370;48.562;9.196;2022-09-01T14:41:51;28.90;80.60
33011;DHT22;19370;48.562;9.196;2022-09-01T14:44:16;28.60;81.00
33011;DHT22;19370;48.562;9.196;2022-09-01T14:46:42;28.80;82.80
33011;DHT22;19370;48.562;9.196;2022-09-01T14:49:08;29.30;79.40
33011;DHT22;19370;48.562;9.196;2022-09-01T14:51:36;29.70;78.70
33011;DHT22;19370;48.562;9.196;2022-09-01T14:54:03;29.90;77.30
33011;DHT22;19370;48.562;9.196;2022-09-01T14:56:29;30.50;76.10
33011;DHT22;19370;48.562;9.196;2022-09-01T14:58:55;30.60;74.90
33011;DHT22;19370;48.562;9.196;2022-09-01T15:01:26;30.90;73.50
33011;DHT22;19370;48.562;9.196;2022-09-01T15:03:58;31.40;69.00
33011;DHT22;19370;48.562;9.196;2022-09-01T15:06:25;32.20;66.70
33011;DHT22;19370;48.562;9.196;2022-09-01T15:08:51;32.20;63.20
33011;DHT22;19370;48.562;9.196;2022-09-01T15:11:18;32.40;62.40
33011;DHT22;19370;48.562;9.196;2022-09-01T15:13:45;32.40;60.10
33011;DHT22;19370;48.562;9.196;2022-09-01T15:16:20;32.20;59.30
33011;DHT22;19370;48.562;9.196;2022-09-01T15:18:46;31.30;60.00
33011;DHT22;19370;48.562;9.196;2022-09-01T15:23:44;29.40;66.20
33011;DHT22;19370;48.562;9.196;2022-09-01T15:26:14;29.60;65.40
33011;DHT22;19370;48.562;9.196;2022-09-01T15:28:43;30.30;64.50
33011;DHT22;19370;48.562;9.196;2022-09-01T15:31:09;31.10;60.80
33011;DHT22;19370;48.562;9.196;2022-09-01T15:33:36;31.20;62.30
33011;DHT22;19370;48.562;9.196;2022-09-01T15:36:02;31.10;60.80
33011;DHT22;19370;48.562;9.196;2022-09-01T15:38:28;31.40;61.10
33011;DHT22;19370;48.562;9.196;2022-09-01T15:40:54;31.90;58.50
33011;DHT22;19370;48.562;9.196;2022-09-01T15:43:20;32.10;57.90
33011;DHT22;19370;48.562;9.196;2022-09-01T15:45:46;32.40;56.10
33011;DHT22;19370;48.562;9.196;2022-09-01T15:48:12;32.20;55.30
33011;DHT22;19370;48.562;9.196;2022-09-01T15:50:38;32.40;56.50
33011;DHT22;19370;48.562;9.196;2022-09-01T15:53:06;32.70;54.40
33011;DHT22;19370;48.562;9.196;2022-09-01T15:55:46;31.90;55.50
33011;DHT22;19370;48.562;9.196;2022-09-01T15:58:15;31.20;57.00
33011;DHT22;19370;48.562;9.196;2022-09-01T16:00:42;31.50;56.80
33011;DHT22;19370;48.562;9.196;2022-09-01T16:03:09;32.10;55.90
33011;DHT22;19370;48.562;9.196;2022-09-01T16:05:37;32.70;53.40
33011;DHT22;19370;48.562;9.196;2022-09-01T16:08:05;33.00;51.90
33011;DHT22;19370;48.562;9.196;2022-09-01T16:10:35;32.20;53.20
33011;DHT22;19370;48.562;9.196;2022-09-01T16:13:03;30.90;55.30
33011;DHT22;19370;48.562;9.196;2022-09-01T16:15:29;30.10;57.50
33011;DHT22;19370;48.562;9.196;2022-09-01T16:18:49;29.40;58.80
33011;DHT22;19370;48.562;9.196;2022-09-01T16:21:12;29.10;59.20
33011;DHT22;19370;48.562;9.196;2022-09-01T16:23:50;29.50;59.70
33011;DHT22;19370;48.562;9.196;2022-09-01T16:26:18;30.00;59.00
33011;DHT22;19370;48.562;9.196;2022-09-01T16:28:54;30.20;57.70
33011;DHT22;19370;48.562;9.196;2022-09-01T16:31:27;29.90;57.10
33011;DHT22;19370;48.562;9.196;2022-09-01T16:33:55;29.20;58.30
33011;DHT22;19370;48.562;9.196;2022-09-01T16:41:56;31.20;57.80
33011;DHT22;19370;48.562;9.196;2022-09-01T16:44:56;31.80;56.40
33011;DHT22;19370;48.562;9.196;2022-09-01T16:53:25;29.70;57.80
33011;DHT22;19370;48.562;9.196;2022-09-01T16:58:37;29.80;57.60
33011;DHT22;19370;48.562;9.196;2022-09-01T17:04:02;29.80;56.20
33011;DHT22;19370;48.562;9.196;2022-09-01T17:06:35;29.40;56.90
33011;DHT22;19370;48.562;9.196;2022-09-01T17:09:22;29.00;56.90
33011;DHT22;19370;48.562;9.196;2022-09-01T17:12:19;27.80;59.00
33011;DHT22;19370;48.562;9.196;2022-09-01T17:17:57;25.50;64.20
33011;DHT22;19370;48.562;9.196;2022-09-01T17:20:32;24.60;66.90
33011;DHT22;19370;48.562;9.196;2022-09-01T17:23:00;24.00;70.80
33011;DHT22;19370;48.562;9.196;2022-09-01T17:25:39;23.50;72.60
33011;DHT22;19370;48.562;9.196;2022-09-01T17:28:46;23.10;74.60
33011;DHT22;19370;48.562;9.196;2022-09-01T17:31:43;22.70;76.90
33011;DHT22;19370;48.562;9.196;2022-09-01T17:37:13;22.10;80.80
33011;DHT22;19370;48.562;9.196;2022-09-01T17:40:20;21.80;82.70
33011;DHT22;19370;48.562;9.196;2022-09-01T17:43:21;21.60;85.20
33011;DHT22;19370;48.562;9.196;2022-09-01T17:46:01;21.30;86.60
33011;DHT22;19370;48.562;9.196;2022-09-01T17:48:41;21.10;88.80
33011;DHT22;19370;48.562;9.196;2022-09-01T17:54:22;20.80;90.80
33011;DHT22;19370;48.562;9.196;2022-09-01T18:07:54;20.20;94.20
33011;DHT22;19370;48.562;9.196;2022-09-01T18:13:25;20.00;95.20
33011;DHT22;19370;48.562;9.196;2022-09-01T18:15:53;19.90;96.30
33011;DHT22;19370;48.562;9.196;2022-09-01T18:18:35;19.80;96.90
33011;DHT22;19370;48.562;9.196;2022-09-01T18:21:11;19.80;97.50
33011;DHT22;19370;48.562;9.196;2022-09-01T18:23:41;19.70;98.20
33011;DHT22;19370;48.562;9.196;2022-09-01T18:26:26;19.60;98.60
33011;DHT22;19370;48.562;9.196;2022-09-01T18:28:59;19.60;99.00
33011;DHT22;19370;48.562;9.196;2022-09-01T18:31:40;19.60;99.70
33011;DHT22;19370;48.562;9.196;2022-09-01T18:36:58;19.40;99.90
33011;DHT22;19370;48.562;9.196;2022-09-01T18:47:27;19.20;99.90